Time,TemperatureF,DewpointF,PressureIn,WindDirection,WindDirectionDegrees,WindSpeedMPH,WindSpeedGustMPH,Humidity,HourlyPrecipIn,Conditions,Clouds,dailyrainin,SoftwareType,DateUTC
2013-02-15 00:02:00,30.8,26.0,29.91,West,265,0.0,0.0,82,0.00,,,0.00,weatherlink.com 1.10,2013-02-15 05:02:00,
2013-02-15 00:17:00,30.7,26.0,29.91,West,265,1.0,2.0,81,0.00,,,0.00,weatherlink.com 1.10,2013-02-15 05:17:00,
2013-02-15 00:32:00,31.7,26.0,29.91,West,265,0.0,1.0,79,0.00,,,0.00,weatherlink.com 1.10,2013-02-15 05:32:00,
2013-02-15 00:47:00,32.3,26.0,29.90,West,265,0.0,0.0,78,0.00,,,0.00,weatherlink.com 1.10,2013-02-15 05:47:00,
2013-02-15 01:02:00,31.9,26.0,29.90,West,265,0.0,0.0,80,0.00,,,0.00,weatherlink.com 1.10,2013-02-15 06:02:00,
2013-02-15 01:17:00,31.4,26.0,29.89,West,265,0.0,0.0,80,0.00,,,0.00,weatherlink.com 1.10,2013-02-15 06:17:00,
2013-02-15 01:32:00,31.7,27.0,29.90,WNW,290,3.0,4.0,83,0.00,,,0.00,weatherlink.com 1.10,2013-02-15 06:32:00,
2013-02-15 01:47:00,33.0,28.0,29.90,West,275,0.0,2.0,82,0.00,,,0.00,weatherlink.com 1.10,2013-02-15 06:47:00,
2013-02-15 02:02:00,32.9,28.0,29.90,West,275,0.0,0.0,81,0.00,,,0.00,weatherlink.com 1.10,2013-02-15 07:02:00,
2013-02-15 02:17:00,32.5,27.0,29.90,West,275,0.0,0.0,81,0.00,,,0.00,weatherlink.com 1.10,2013-02-15 07:17:00,
2013-02-15 02:32:00,31.9,27.0,29.90,West,275,0.0,0.0,82,0.00,,,0.00,weatherlink.com 1.10,2013-02-15 07:32:00,
2013-02-15 02:47:00,31.4,27.0,29.90,West,275,0.0,1.0,83,0.00,,,0.00,weatherlink.com 1.10,2013-02-15 07:47:00,
2013-02-15 03:03:00,31.0,27.0,29.91,West,275,0.0,0.0,84,0.00,,,0.00,weatherlink.com 1.10,2013-02-15 08:03:00,
2013-02-15 03:17:00,30.5,26.0,29.90,West,275,0.0,0.0,84,0.00,,,0.00,weatherlink.com 1.10,2013-02-15 08:17:00,
2013-02-15 03:32:00,30.1,26.0,29.91,West,275,0.0,0.0,85,0.00,,,0.00,weatherlink.com 1.10,2013-02-15 08:32:00,
2013-02-15 03:47:00,30.5,26.0,29.91,West,275,0.0,0.0,83,0.00,,,0.00,weatherlink.com 1.10,2013-02-15 08:47:00,
2013-02-15 04:02:00,31.8,27.0,29.91,West,274,0.0,1.0,82,0.00,,,0.00,weatherlink.com 1.10,2013-02-15 09:02:00,
2013-02-15 04:18:00,32.1,26.0,29.91,West,274,0.0,0.0,79,0.00,,,0.00,weatherlink.com 1.10,2013-02-15 09:18:00,
2013-02-15 04:32:00,32.1,27.0,29.91,West,274,0.0,0.0,80,0.00,,,0.00,weatherlink.com 1.10,2013-02-15 09:32:00,
2013-02-15 04:47:00,31.6,26.0,29.91,WSW,251,0.0,1.0,81,0.00,,,0.00,weatherlink.com 1.10,2013-02-15 09:47:00,
2013-02-15 05:03:00,30.7,26.0,29.92,WSW,251,0.0,0.0,83,0.00,,,0.00,weatherlink.com 1.10,2013-02-15 10:03:00,
2013-02-15 05:17:00,30.2,26.0,29.92,West,260,0.0,2.0,83,0.00,,,0.00,weatherlink.com 1.10,2013-02-15 10:17:00,
2013-02-15 05:33:00,30.0,25.0,29.92,West,265,0.0,2.0,83,0.00,,,0.00,weatherlink.com 1.10,2013-02-15 10:33:00,
2013-02-15 05:48:00,29.5,25.0,29.93,West,265,0.0,0.0,84,0.00,,,0.00,weatherlink.com 1.10,2013-02-15 10:48:00,
2013-02-15 06:03:00,28.9,25.0,29.93,West,265,0.0,2.0,84,0.00,,,0.00,weatherlink.com 1.10,2013-02-15 11:03:00,
2013-02-15 06:18:00,28.5,25.0,29.94,West,265,0.0,0.0,85,0.00,,,0.00,weatherlink.com 1.10,2013-02-15 11:18:00,
2013-02-15 06:33:00,28.1,25.0,29.94,West,265,0.0,0.0,86,0.00,,,0.00,weatherlink.com 1.10,2013-02-15 11:33:00,
2013-02-15 06:48:00,28.0,24.0,29.95,West,265,0.0,0.0,86,0.00,,,0.00,weatherlink.com 1.10,2013-02-15 11:48:00,
2013-02-15 07:03:00,27.8,24.0,29.95,West,265,0.0,0.0,86,0.00,,,0.00,weatherlink.com 1.10,2013-02-15 12:03:00,
2013-02-15 07:18:00,28.0,25.0,29.95,West,265,0.0,0.0,87,0.00,,,0.00,weatherlink.com 1.10,2013-02-15 12:18:00,
2013-02-15 07:33:00,29.7,26.0,29.95,West,273,0.0,0.0,87,0.00,,,0.00,weatherlink.com 1.10,2013-02-15 12:33:00,
2013-02-15 07:48:00,32.4,28.0,29.95,West,273,0.0,0.0,83,0.00,,,0.00,weatherlink.com 1.10,2013-02-15 12:48:00,
2013-02-15 08:03:00,35.2,29.0,29.96,West,276,0.0,2.0,77,0.00,,,0.00,weatherlink.com 1.10,2013-02-15 13:03:00,
2013-02-15 08:18:00,37.9,30.0,29.97,West,261,0.0,1.0,73,0.00,,,0.00,weatherlink.com 1.10,2013-02-15 13:18:00,
2013-02-15 08:33:00,40.2,30.0,29.97,WSW,257,0.0,1.0,68,0.00,,,0.00,weatherlink.com 1.10,2013-02-15 13:33:00,
2013-02-15 08:48:00,41.8,31.0,29.98,WNW,289,0.0,1.0,65,0.00,,,0.00,weatherlink.com 1.10,2013-02-15 13:48:00,
2013-02-15 09:03:00,43.2,31.0,29.98,West,261,0.0,2.0,62,0.00,,,0.00,weatherlink.com 1.10,2013-02-15 14:03:00,
2013-02-15 09:19:00,44.3,31.0,29.97,SSE,151,0.0,1.0,60,0.00,,,0.00,weatherlink.com 1.10,2013-02-15 14:19:00,
2013-02-15 09:33:00,45.6,32.0,29.97,SE,133,1.0,1.0,59,0.00,,,0.00,weatherlink.com 1.10,2013-02-15 14:33:00,
2013-02-15 09:48:00,47.1,33.0,29.97,ESE,116,0.0,2.0,58,0.00,,,0.00,weatherlink.com 1.10,2013-02-15 14:48:00,
2013-02-15 10:03:00,48.8,34.0,29.97,SSE,164,0.0,1.0,56,0.00,,,0.00,weatherlink.com 1.10,2013-02-15 15:03:00,
2013-02-15 10:18:00,48.1,33.0,29.96,NNE,27,0.0,3.0,57,0.00,,,0.00,weatherlink.com 1.10,2013-02-15 15:18:00,
2013-02-15 10:33:00,50.2,36.0,29.96,NW,323,0.0,5.0,58,0.00,,,0.00,weatherlink.com 1.10,2013-02-15 15:33:00,
2013-02-15 10:49:00,52.6,35.0,29.95,WNW,295,6.0,6.0,52,0.00,,,0.00,weatherlink.com 1.10,2013-02-15 15:49:00,
2013-02-15 11:04:00,53.1,35.0,29.95,NNW,329,2.0,8.0,50,0.00,,,0.00,weatherlink.com 1.10,2013-02-15 16:04:00,
2013-02-15 11:19:00,53.7,35.0,29.94,NW,304,6.0,9.0,49,0.00,,,0.00,weatherlink.com 1.10,2013-02-15 16:19:00,
2013-02-15 11:34:00,53.2,33.0,29.93,NNW,337,7.0,12.0,47,0.00,,,0.00,weatherlink.com 1.10,2013-02-15 16:34:00,
2013-02-15 11:49:00,54.0,33.0,29.92,WNW,286,7.0,13.0,46,0.00,,,0.00,weatherlink.com 1.10,2013-02-15 16:49:00,
2013-02-15 12:04:00,54.7,34.0,29.92,West,277,10.0,13.0,45,0.00,,,0.00,weatherlink.com 1.10,2013-02-15 17:04:00,
2013-02-15 12:19:00,56.0,34.0,29.92,WNW,289,6.0,12.0,43,0.00,,,0.00,weatherlink.com 1.10,2013-02-15 17:19:00,
2013-02-15 12:34:00,54.5,33.0,29.91,NW,320,4.0,10.0,45,0.00,,,0.00,weatherlink.com 1.10,2013-02-15 17:34:00,
2013-02-15 12:49:00,55.7,34.0,29.90,WNW,294,3.0,9.0,44,0.00,,,0.00,weatherlink.com 1.10,2013-02-15 17:49:00,
2013-02-15 13:04:00,54.8,34.0,29.89,WNW,300,2.0,10.0,45,0.00,,,0.00,weatherlink.com 1.10,2013-02-15 18:04:00,
2013-02-15 13:19:00,53.3,33.0,29.89,North,355,0.0,7.0,46,0.00,,,0.00,weatherlink.com 1.10,2013-02-15 18:19:00,
2013-02-15 13:34:00,52.6,33.0,29.89,WNW,300,4.0,5.0,47,0.00,,,0.00,weatherlink.com 1.10,2013-02-15 18:34:00,
2013-02-15 13:49:00,51.9,33.0,29.89,WNW,290,1.0,4.0,48,0.00,,,0.00,weatherlink.com 1.10,2013-02-15 18:49:00,
2013-02-15 14:04:00,51.2,32.0,29.88,West,264,3.0,4.0,49,0.00,,,0.00,weatherlink.com 1.10,2013-02-15 19:04:00,
2013-02-15 14:19:00,50.5,33.0,29.88,ENE,67,1.0,3.0,51,0.00,,,0.00,weatherlink.com 1.10,2013-02-15 19:19:00,
2013-02-15 14:35:00,50.5,33.0,29.88,West,279,0.0,4.0,51,0.00,,,0.00,weatherlink.com 1.10,2013-02-15 19:35:00,
2013-02-15 14:49:00,50.6,33.0,29.87,West,281,2.0,5.0,51,0.00,,,0.00,weatherlink.com 1.10,2013-02-15 19:49:00,
2013-02-15 15:04:00,50.5,33.0,29.87,WNW,298,0.0,7.0,51,0.00,,,0.00,weatherlink.com 1.10,2013-02-15 20:04:00,
2013-02-15 15:19:00,50.2,33.0,29.87,WNW,286,6.0,7.0,52,0.00,,,0.00,weatherlink.com 1.10,2013-02-15 20:19:00,
2013-02-15 15:34:00,49.4,33.0,29.89,WNW,303,9.0,11.0,54,0.00,,,0.00,weatherlink.com 1.10,2013-02-15 20:34:00,
2013-02-15 16:04:00,44.2,36.0,29.91,WNW,292,4.0,14.0,74,0.01,,,0.01,weatherlink.com 1.10,2013-02-15 21:04:00,
2013-02-15 16:19:00,42.4,36.0,29.92,West,281,8.0,11.0,78,0.01,,,0.01,weatherlink.com 1.10,2013-02-15 21:19:00,
2013-02-15 16:34:00,41.6,36.0,29.92,NW,317,3.0,9.0,81,0.01,,,0.01,weatherlink.com 1.10,2013-02-15 21:34:00,
2013-02-15 16:49:00,40.9,36.0,29.92,WNW,298,3.0,9.0,83,0.03,,,0.03,weatherlink.com 1.10,2013-02-15 21:49:00,
2013-02-15 17:05:00,40.4,36.0,29.92,WNW,291,1.0,5.0,84,0.04,,,0.05,weatherlink.com 1.10,2013-02-15 22:05:00,
2013-02-15 17:20:00,40.0,36.0,29.92,NNW,342,0.0,4.0,86,0.04,,,0.05,weatherlink.com 1.10,2013-02-15 22:20:00,
2013-02-15 17:34:00,39.7,36.0,29.92,NW,306,0.0,0.0,87,0.03,,,0.05,weatherlink.com 1.10,2013-02-15 22:34:00,
2013-02-15 17:50:00,39.5,36.0,29.92,West,259,0.0,1.0,88,0.02,,,0.05,weatherlink.com 1.10,2013-02-15 22:50:00,
2013-02-15 18:05:00,39.2,36.0,29.93,WNW,286,1.0,4.0,88,0.00,,,0.05,weatherlink.com 1.10,2013-02-15 23:05:00,
2013-02-15 18:20:00,38.8,36.0,29.94,WNW,292,3.0,6.0,89,0.04,,,0.09,weatherlink.com 1.10,2013-02-15 23:20:00,
2013-02-15 18:34:00,38.4,36.0,29.93,West,277,0.0,3.0,90,0.06,,,0.11,weatherlink.com 1.10,2013-02-15 23:34:00,
2013-02-15 18:50:00,37.8,35.0,29.93,SW,227,0.0,4.0,89,0.09,,,0.14,weatherlink.com 1.10,2013-02-15 23:50:00,
2013-02-15 19:05:00,37.4,35.0,29.95,WNW,300,1.0,4.0,90,0.08,,,0.14,weatherlink.com 1.10,2013-02-16 00:05:00,
2013-02-15 19:19:00,37.0,35.0,29.95,WNW,294,0.0,2.0,91,0.06,,,0.14,weatherlink.com 1.10,2013-02-16 00:19:00,
2013-02-15 19:35:00,36.9,35.0,29.95,WNW,295,0.0,2.0,92,0.04,,,0.15,weatherlink.com 1.10,2013-02-16 00:35:00,
2013-02-15 19:50:00,36.8,35.0,29.95,WNW,295,0.0,1.0,92,0.02,,,0.16,weatherlink.com 1.10,2013-02-16 00:50:00,
2013-02-15 20:05:00,36.8,35.0,29.95,WNW,295,0.0,0.0,93,0.04,,,0.18,weatherlink.com 1.10,2013-02-16 01:05:00,
2013-02-15 20:20:00,36.7,35.0,29.95,WNW,295,2.0,2.0,93,0.04,,,0.18,weatherlink.com 1.10,2013-02-16 01:20:00,
2013-02-15 20:35:00,36.7,35.0,29.95,WNW,295,0.0,0.0,94,0.04,,,0.19,weatherlink.com 1.10,2013-02-16 01:35:00,
2013-02-15 20:50:00,36.7,35.0,29.96,WNW,295,0.0,0.0,94,0.03,,,0.19,weatherlink.com 1.10,2013-02-16 01:50:00,
2013-02-15 21:06:00,36.6,35.0,29.95,WNW,295,0.0,0.0,95,0.01,,,0.19,weatherlink.com 1.10,2013-02-16 02:06:00,
2013-02-15 21:21:00,36.5,35.0,29.95,WNW,295,0.0,0.0,95,0.01,,,0.19,weatherlink.com 1.10,2013-02-16 02:21:00,
2013-02-15 21:35:00,36.4,35.0,29.95,WNW,295,0.0,0.0,94,0.00,,,0.19,weatherlink.com 1.10,2013-02-16 02:35:00,
2013-02-15 21:50:00,36.3,35.0,29.95,WNW,295,0.0,0.0,95,0.00,,,0.19,weatherlink.com 1.10,2013-02-16 02:50:00,
2013-02-15 22:05:00,36.2,35.0,29.95,WNW,295,0.0,0.0,95,0.00,,,0.19,weatherlink.com 1.10,2013-02-16 03:05:00,
2013-02-15 22:21:00,36.1,35.0,29.95,WNW,295,0.0,0.0,95,0.00,,,0.19,weatherlink.com 1.10,2013-02-16 03:21:00,
2013-02-15 22:35:00,36.0,35.0,29.96,WNW,295,0.0,1.0,95,0.00,,,0.19,weatherlink.com 1.10,2013-02-16 03:35:00,
2013-02-15 22:51:00,35.9,35.0,29.96,WNW,295,0.0,0.0,95,0.00,,,0.19,weatherlink.com 1.10,2013-02-16 03:51:00,
2013-02-15 23:05:00,35.7,34.0,29.95,WNW,295,0.0,0.0,95,0.00,,,0.19,weatherlink.com 1.10,2013-02-16 04:05:00,
2013-02-15 23:20:00,35.5,34.0,29.95,WNW,295,0.0,1.0,95,0.00,,,0.19,weatherlink.com 1.10,2013-02-16 04:20:00,
2013-02-15 23:35:00,35.2,34.0,29.94,WNW,295,0.0,0.0,95,0.00,,,0.19,weatherlink.com 1.10,2013-02-16 04:35:00,
2013-02-15 23:51:00,34.9,34.0,29.95,WNW,295,0.0,0.0,95,0.00,,,0.19,weatherlink.com 1.10,2013-02-16 04:51:00,